createdAt,value
2023-04-22T00:00:35.676Z,19.47
2023-04-22T00:03:03.743Z,18.07
2023-04-22T00:05:30.544Z,17.13
2023-04-22T00:07:57.169Z,17.60
2023-04-22T00:10:23.724Z,18.40
2023-04-22T00:12:50.373Z,16.57
2023-04-22T00:15:20.291Z,17.17
2023-04-22T00:17:46.802Z,16.73
2023-04-22T00:20:13.367Z,15.70
2023-04-22T00:22:39.921Z,13.97
2023-04-22T00:25:06.848Z,12.63
2023-04-22T00:27:33.401Z,12.67
2023-04-22T00:30:00.009Z,13.50
2023-04-22T00:32:26.874Z,12.77
2023-04-22T00:34:53.437Z,11.73
2023-04-22T00:37:20.608Z,11.90
2023-04-22T00:39:47.129Z,11.57
2023-04-22T00:42:13.699Z,12.23
2023-04-22T00:44:41.030Z,11.83
2023-04-22T00:47:07.808Z,12.27
2023-04-22T00:49:34.898Z,11.47
2023-04-22T00:52:01.434Z,12.23
2023-04-22T00:54:28.865Z,12.47
2023-04-22T00:56:56.249Z,10.20
2023-04-22T00:59:24.169Z,11.27
2023-04-22T01:01:51.435Z,10.70
2023-04-22T01:04:18.918Z,10.10
2023-04-22T01:06:47.120Z,10.57
2023-04-22T01:09:13.649Z,10.23
2023-04-22T01:11:41.467Z,9.70
2023-04-22T01:14:08.104Z,9.50
2023-04-22T01:16:35.887Z,11.37
2023-04-22T01:19:02.727Z,10.30
2023-04-22T01:21:29.680Z,10.50
2023-04-22T01:23:56.314Z,10.90
2023-04-22T01:26:22.835Z,11.13
2023-04-22T01:28:49.563Z,10.33
2023-04-22T01:31:16.323Z,10.37
2023-04-22T01:33:44.270Z,10.33
2023-04-22T01:36:12.894Z,10.83
2023-04-22T01:38:40.480Z,10.77
2023-04-22T01:41:07.487Z,11.30
2023-04-22T01:43:34.159Z,10.63
2023-04-22T01:46:01.550Z,11.13
2023-04-22T01:48:28.214Z,11.30
2023-04-22T01:50:54.716Z,11.17
2023-04-22T01:53:21.276Z,11.83
2023-04-22T01:55:47.892Z,10.80
2023-04-22T01:58:14.681Z,11.03
2023-04-22T02:00:41.561Z,11.53
2023-04-22T02:03:08.217Z,10.77
2023-04-22T02:05:34.885Z,12.33
2023-04-22T02:08:01.467Z,11.53
2023-04-22T02:10:28.248Z,11.17
2023-04-22T02:12:54.891Z,10.23
2023-04-22T02:15:22.831Z,10.87
2023-04-22T02:17:50.721Z,10.87
2023-04-22T02:20:17.346Z,11.53
2023-04-22T02:22:44.517Z,11.13
2023-04-22T02:25:12.518Z,10.90
2023-04-22T02:27:39.454Z,10.27
2023-04-22T02:30:06.618Z,11.47
2023-04-22T02:32:33.196Z,11.33
2023-04-22T02:34:59.739Z,11.33
2023-04-22T02:37:26.398Z,11.40
2023-04-22T02:39:54.794Z,9.97
2023-04-22T02:42:21.319Z,10.70
2023-04-22T02:44:47.968Z,10.30
2023-04-22T02:47:14.521Z,10.83
2023-04-22T02:49:41.291Z,10.93
2023-04-22T02:52:09.154Z,10.97
2023-04-22T02:54:35.672Z,10.70
2023-04-22T02:57:02.890Z,11.50
2023-04-22T02:59:31.294Z,11.47
2023-04-22T03:01:58.750Z,11.33
2023-04-22T03:04:50.410Z,9.70
2023-04-22T03:07:17.042Z,11.97
2023-04-22T03:09:43.571Z,11.17
2023-04-22T03:12:10.615Z,12.17
2023-04-22T03:14:37.252Z,13.50
2023-04-22T03:17:03.875Z,10.93
2023-04-22T03:19:30.665Z,11.20
2023-04-22T03:21:58.222Z,11.33
2023-04-22T03:24:24.880Z,11.20
2023-04-22T03:26:52.918Z,12.57
2023-04-22T03:29:19.532Z,10.53
2023-04-22T03:31:46.214Z,10.93
2023-04-22T03:34:12.728Z,11.70
2023-04-22T03:36:40.812Z,11.67
2023-04-22T03:39:08.368Z,12.60
2023-04-22T03:41:34.986Z,12.67
2023-04-22T03:44:02.024Z,14.07
2023-04-22T03:46:30.014Z,12.47
2023-04-22T03:49:06.069Z,13.97
2023-04-22T03:51:34.703Z,13.93
2023-04-22T03:54:06.864Z,14.17
2023-04-22T03:56:36.864Z,17.50
2023-04-22T03:59:03.587Z,19.23
2023-04-22T04:01:30.286Z,21.03
2023-04-22T04:04:00.715Z,22.47
2023-04-22T04:06:35.959Z,20.37
2023-04-22T04:09:04.303Z,15.87
2023-04-22T04:11:31.641Z,17.37
2023-04-22T04:13:59.580Z,15.80
2023-04-22T04:16:31.772Z,13.67
2023-04-22T04:19:06.382Z,17.33
2023-04-22T04:21:35.550Z,14.67
2023-04-22T04:24:03.307Z,13.77
2023-04-22T04:26:33.838Z,15.97
2023-04-22T04:29:09.965Z,13.93
2023-04-22T04:31:40.930Z,14.17
2023-04-22T04:34:07.582Z,14.20
2023-04-22T04:36:36.785Z,10.30
2023-04-22T04:39:13.111Z,12.00
2023-04-22T04:41:41.234Z,11.70
2023-04-22T04:44:07.911Z,11.23
2023-04-22T04:46:37.869Z,12.37
2023-04-22T04:49:05.529Z,11.47
2023-04-22T04:51:37.239Z,11.83
2023-04-22T04:54:04.216Z,14.53
2023-04-22T04:56:35.854Z,11.13
2023-04-22T04:59:02.697Z,11.73
2023-04-22T05:01:29.548Z,12.07
2023-04-22T05:04:02.576Z,11.17
2023-04-22T05:06:29.415Z,11.27
2023-04-22T05:09:01.683Z,11.80
2023-04-22T05:11:28.440Z,10.97
2023-04-22T05:13:57.445Z,12.00
2023-04-22T05:16:31.930Z,11.90
2023-04-22T05:18:58.971Z,12.20
2023-04-22T05:21:25.566Z,11.07
2023-04-22T05:23:52.470Z,11.33
2023-04-22T05:26:19.824Z,12.93
2023-04-22T05:28:49.133Z,12.53
2023-04-22T05:31:17.153Z,11.93
2023-04-22T05:33:43.726Z,11.67
2023-04-22T05:36:10.336Z,12.80
2023-04-22T05:38:36.964Z,12.30
2023-04-22T05:41:03.506Z,11.07
2023-04-22T05:43:30.793Z,11.13
2023-04-22T05:46:07.215Z,11.00
2023-04-22T05:48:37.143Z,11.47
2023-04-22T05:51:07.614Z,12.20
2023-04-22T05:53:34.920Z,12.43
2023-04-22T05:56:02.618Z,11.70
2023-04-22T05:58:29.278Z,12.00
2023-04-22T06:01:00.686Z,13.10
2023-04-22T06:03:53.510Z,12.60
2023-04-22T06:06:20.493Z,12.40
2023-04-22T06:08:47.486Z,13.27
2023-04-22T06:11:14.023Z,11.37
2023-04-22T06:13:40.651Z,11.70
2023-04-22T06:18:40.426Z,11.20
2023-04-22T06:21:10.960Z,10.57
2023-04-22T06:23:37.558Z,11.37
2023-04-22T06:26:04.598Z,10.43
2023-04-22T06:28:31.842Z,10.60
2023-04-22T06:31:02.381Z,10.97
2023-04-22T06:33:29.957Z,11.10
2023-04-22T06:35:56.694Z,12.00
2023-04-22T06:38:23.375Z,10.87
2023-04-22T06:41:28.180Z,10.93
2023-04-22T06:43:59.845Z,10.63
2023-04-22T06:46:48.849Z,11.63
2023-04-22T06:49:35.872Z,11.83
2023-04-22T06:52:02.481Z,10.93
2023-04-22T06:54:29.405Z,10.70
2023-04-22T06:56:56.653Z,10.63
2023-04-22T06:59:23.661Z,9.50
2023-04-22T07:01:50.275Z,10.80
2023-04-22T07:04:16.937Z,9.50
2023-04-22T07:06:43.588Z,10.13
2023-04-22T07:09:10.302Z,9.57
2023-04-22T07:11:38.028Z,9.80
2023-04-22T07:14:17.871Z,9.63
2023-04-22T07:16:44.458Z,9.63
2023-04-22T07:19:11.049Z,9.60
2023-04-22T07:21:37.674Z,8.17
2023-04-22T07:24:04.379Z,11.83
2023-04-22T07:26:32.372Z,8.67
2023-04-22T07:28:58.857Z,8.53
2023-04-22T07:31:25.431Z,7.60
2023-04-22T07:33:51.962Z,8.27
2023-04-22T07:36:18.480Z,7.70
2023-04-22T07:38:44.990Z,7.73
2023-04-22T07:41:11.562Z,7.00
2023-04-22T07:43:38.091Z,7.53
2023-04-22T07:46:04.861Z,6.87
2023-04-22T07:48:31.448Z,6.47
2023-04-22T07:50:57.974Z,6.10
2023-04-22T07:53:24.502Z,7.83
2023-04-22T07:55:51.093Z,6.23
2023-04-22T07:58:17.676Z,7.70
2023-04-22T08:00:44.269Z,7.40
2023-04-22T08:03:11.037Z,6.47
2023-04-22T08:05:37.795Z,7.37
2023-04-22T08:08:04.791Z,7.63
2023-04-22T08:10:31.412Z,6.87
2023-04-22T08:12:58.130Z,7.37
2023-04-22T08:15:24.862Z,6.83
2023-04-22T08:17:51.522Z,7.40
2023-04-22T08:20:18.260Z,7.63
2023-04-22T08:22:47.211Z,7.07
2023-04-22T08:25:13.800Z,8.20
2023-04-22T08:27:40.388Z,6.63
2023-04-22T08:30:07.370Z,8.80
2023-04-22T08:32:33.952Z,6.30
2023-04-22T08:35:04.937Z,6.40
2023-04-22T08:37:31.955Z,6.60
2023-04-22T08:39:58.471Z,6.63
2023-04-22T08:42:25.321Z,7.97
2023-04-22T08:44:52.759Z,6.40
2023-04-22T08:47:20.346Z,6.43
2023-04-22T08:49:46.928Z,6.80
2023-04-22T08:52:15.393Z,7.43
2023-04-22T08:54:42.176Z,6.27
2023-04-22T08:57:11.183Z,7.00
2023-04-22T08:59:38.858Z,6.00
2023-04-22T09:02:07.300Z,6.47
2023-04-22T09:04:34.485Z,6.37
2023-04-22T09:07:01.693Z,6.67
2023-04-22T09:09:28.857Z,6.80
2023-04-22T09:11:55.408Z,6.73
2023-04-22T09:14:22.620Z,8.07
2023-04-22T09:16:49.797Z,6.07
2023-04-22T09:19:16.423Z,7.20
2023-04-22T09:21:42.978Z,6.70
2023-04-22T09:24:10.883Z,7.13
2023-04-22T09:26:41.764Z,7.10
2023-04-22T09:29:13.015Z,8.80
2023-04-22T09:31:40.803Z,7.90
2023-04-22T09:34:07.830Z,7.67
2023-04-22T09:36:34.484Z,6.00
2023-04-22T09:39:04.768Z,7.43
2023-04-22T09:41:35.450Z,7.87
2023-04-22T09:44:03.062Z,7.10
2023-04-22T09:46:30.947Z,6.70
2023-04-22T09:49:01.209Z,7.67
2023-04-22T09:51:28.679Z,10.20
2023-04-22T09:53:59.476Z,7.53
2023-04-22T09:56:44.954Z,8.37
2023-04-22T09:59:12.154Z,6.53
2023-04-22T10:01:42.714Z,8.13
2023-04-22T10:04:10.042Z,6.40
2023-04-22T10:06:37.423Z,7.00
2023-04-22T10:09:05.269Z,6.83
2023-04-22T10:11:33.341Z,7.60
2023-04-22T10:14:03.008Z,6.30
2023-04-22T10:16:32.169Z,7.10
2023-04-22T10:18:59.577Z,8.37
2023-04-22T10:21:26.815Z,6.57
2023-04-22T10:23:53.369Z,6.67
2023-04-22T10:26:39.871Z,7.00
2023-04-22T10:29:08.007Z,6.70
2023-04-22T10:31:34.756Z,7.40
2023-04-22T10:34:12.071Z,6.87
2023-04-22T10:36:58.835Z,6.33
2023-04-22T10:39:26.073Z,7.53
2023-04-22T10:41:53.659Z,7.87
2023-04-22T10:44:21.922Z,5.87
2023-04-22T10:46:52.185Z,6.50
2023-04-22T10:49:22.876Z,5.97
2023-04-22T10:51:53.870Z,6.17
2023-04-22T10:54:31.906Z,6.17
2023-04-22T10:57:03.261Z,6.07
2023-04-22T10:59:30.358Z,6.37
2023-04-22T11:02:03.575Z,6.20
2023-04-22T11:04:30.451Z,5.17
2023-04-22T11:07:30.738Z,6.03
2023-04-22T11:10:07.024Z,6.87
2023-04-22T11:12:39.494Z,5.80
2023-04-22T11:15:06.861Z,5.93
2023-04-22T11:17:33.625Z,7.13
2023-04-22T11:20:00.540Z,5.93
2023-04-22T11:22:27.222Z,6.30
2023-04-22T11:24:57.439Z,5.43
2023-04-22T11:27:26.790Z,6.20
2023-04-22T11:30:00.299Z,6.10
2023-04-22T11:32:27.600Z,5.90
2023-04-22T11:34:54.353Z,5.40
2023-04-22T11:37:21.701Z,5.87
2023-04-22T11:42:22.933Z,5.23
2023-04-22T11:44:50.670Z,5.60
2023-04-22T11:47:17.266Z,5.50
2023-04-22T11:49:54.736Z,6.30
2023-04-22T11:52:21.362Z,5.83
2023-04-22T11:54:48.110Z,6.20
2023-04-22T11:57:16.633Z,5.33
2023-04-22T11:59:43.580Z,6.27
2023-04-22T12:02:10.542Z,5.70
2023-04-22T12:04:40.832Z,5.70
2023-04-22T12:07:07.704Z,5.70
2023-04-22T12:09:34.480Z,6.27
2023-04-22T12:12:03.417Z,7.10
2023-04-22T12:14:33.188Z,6.23
2023-04-22T12:17:02.901Z,5.33
2023-04-22T12:19:29.428Z,5.70
2023-04-22T12:21:57.010Z,6.03
2023-04-22T12:24:30.125Z,5.70
2023-04-22T12:26:56.993Z,5.97
2023-04-22T12:29:27.420Z,5.07
2023-04-22T12:31:58.325Z,6.10
2023-04-22T12:34:26.977Z,5.37
2023-04-22T12:36:54.981Z,5.90
2023-04-22T12:39:21.593Z,5.67
2023-04-22T12:41:51.048Z,5.37
2023-04-22T12:44:17.726Z,5.20
2023-04-22T12:46:44.456Z,5.00
2023-04-22T12:49:11.142Z,5.20
2023-04-22T12:51:37.856Z,5.43
2023-04-22T12:54:04.403Z,5.23
2023-04-22T12:56:31.049Z,5.30
2023-04-22T12:59:03.019Z,4.80
2023-04-22T13:01:30.005Z,4.50
2023-04-22T13:03:56.723Z,5.00
2023-04-22T13:06:23.354Z,6.40
2023-04-22T13:08:49.865Z,5.03
2023-04-22T13:11:16.501Z,5.20
2023-04-22T13:13:43.031Z,5.10
2023-04-22T13:16:09.571Z,5.97
2023-04-22T13:18:36.306Z,6.37
2023-04-22T13:21:03.127Z,5.23
2023-04-22T13:23:29.698Z,5.37
2023-04-22T13:25:56.320Z,4.63
2023-04-22T13:28:22.881Z,5.00
2023-04-22T13:30:49.675Z,6.60
2023-04-22T13:33:16.172Z,5.97
2023-04-22T13:35:43.005Z,6.70
2023-04-22T13:38:09.646Z,4.27
2023-04-22T13:40:36.208Z,5.43
2023-04-22T13:43:02.709Z,4.40
2023-04-22T13:45:29.328Z,5.30
2023-04-22T13:47:56.207Z,4.83
2023-04-22T13:50:23.942Z,4.53
2023-04-22T13:52:50.588Z,4.60
2023-04-22T13:55:17.408Z,4.73
2023-04-22T13:57:44.582Z,5.13
2023-04-22T14:00:11.356Z,4.57
2023-04-22T14:02:40.665Z,5.20
2023-04-22T14:05:07.562Z,4.70
2023-04-22T14:07:34.087Z,5.00
2023-04-22T14:10:01.146Z,7.60
2023-04-22T14:12:27.731Z,4.50
2023-04-22T14:14:54.246Z,5.40
2023-04-22T14:17:22.568Z,5.50
2023-04-22T14:19:49.521Z,4.50
2023-04-22T14:22:16.052Z,4.70
2023-04-22T14:24:42.552Z,7.13
2023-04-22T14:27:11.190Z,4.50
2023-04-22T14:29:39.316Z,4.27
2023-04-22T14:32:06.212Z,5.43
2023-04-22T14:34:33.022Z,5.77
2023-04-22T14:36:59.584Z,5.10
2023-04-22T14:39:26.111Z,7.13
2023-04-22T14:41:52.630Z,5.00
2023-04-22T14:44:19.214Z,5.00
2023-04-22T14:46:45.834Z,4.93
2023-04-22T14:49:12.380Z,5.07
2023-04-22T14:51:38.948Z,4.97
2023-04-22T14:54:05.592Z,4.73
2023-04-22T14:56:32.144Z,6.53
2023-04-22T14:58:58.628Z,4.53
2023-04-22T15:01:25.787Z,4.83
2023-04-22T15:03:52.617Z,4.70
2023-04-22T15:06:19.283Z,4.60
2023-04-22T15:08:45.909Z,6.30
2023-04-22T15:11:12.462Z,6.03
2023-04-22T15:13:39.128Z,4.70
2023-04-22T15:16:05.768Z,5.33
2023-04-22T15:18:32.346Z,5.20
2023-04-22T15:20:59.085Z,4.60
2023-04-22T15:23:26.018Z,5.10
2023-04-22T15:25:52.505Z,5.43
2023-04-22T15:28:19.209Z,7.63
2023-04-22T15:30:45.817Z,4.90
2023-04-22T15:33:12.342Z,4.60
2023-04-22T15:35:39.043Z,5.30
2023-04-22T15:38:05.823Z,5.20
2023-04-22T15:40:32.349Z,4.57
2023-04-22T15:42:58.875Z,5.00
2023-04-22T15:45:25.494Z,5.70
2023-04-22T15:47:53.247Z,5.13
2023-04-22T15:50:23.256Z,7.47
2023-04-22T15:52:49.869Z,12.50
2023-04-22T15:55:16.462Z,5.20
2023-04-22T15:57:43.245Z,4.53
2023-04-22T16:00:13.114Z,7.53
2023-04-22T16:02:41.052Z,6.23
2023-04-22T16:05:07.854Z,4.83
2023-04-22T16:07:34.353Z,5.67
2023-04-22T16:10:00.980Z,5.57
2023-04-22T16:12:27.533Z,5.00
2023-04-22T16:14:54.073Z,6.90
2023-04-22T16:17:21.017Z,5.90
2023-04-22T16:19:47.699Z,4.90
2023-04-22T16:22:15.488Z,5.43
2023-04-22T16:24:43.969Z,5.37
2023-04-22T16:27:13.077Z,5.20
2023-04-22T16:29:39.849Z,7.07
2023-04-22T16:32:06.665Z,5.07
2023-04-22T16:34:33.724Z,5.57
2023-04-22T16:37:00.405Z,6.60
2023-04-22T16:39:27.025Z,6.30
2023-04-22T16:41:53.943Z,9.67
2023-04-22T16:44:20.620Z,5.60
2023-04-22T16:46:47.116Z,5.93
2023-04-22T16:49:13.748Z,7.07
2023-04-22T16:51:40.792Z,10.10
2023-04-22T16:54:07.888Z,6.17
2023-04-22T16:56:34.414Z,6.57
2023-04-22T16:59:01.468Z,6.40
2023-04-22T17:01:29.971Z,6.03
2023-04-22T17:03:57.173Z,6.63
2023-04-22T17:06:24.313Z,7.37
2023-04-22T17:08:52.619Z,7.00
2023-04-22T17:11:19.302Z,8.93
2023-04-22T17:13:45.916Z,11.00
2023-04-22T17:16:12.503Z,13.23
2023-04-22T17:18:39.137Z,10.83
2023-04-22T17:21:05.768Z,8.13
2023-04-22T17:23:32.371Z,7.67
2023-04-22T17:25:59.489Z,7.20
2023-04-22T17:28:26.588Z,11.40
2023-04-22T17:30:53.210Z,7.33
2023-04-22T17:33:19.759Z,8.03
2023-04-22T17:35:46.363Z,7.63
2023-04-22T17:38:14.123Z,7.60
2023-04-22T17:40:40.897Z,7.63
2023-04-22T17:43:07.456Z,7.80
2023-04-22T17:45:34.296Z,8.97
2023-04-22T17:48:00.876Z,8.63
2023-04-22T17:50:27.570Z,8.37
2023-04-22T17:52:54.334Z,9.17
2023-04-22T17:55:20.964Z,9.93
2023-04-22T17:57:47.539Z,9.97
2023-04-22T18:00:18.105Z,14.20
2023-04-22T18:02:44.764Z,18.40
2023-04-22T18:05:11.605Z,23.17
2023-04-22T18:07:38.306Z,21.90
2023-04-22T18:10:05.081Z,15.27
2023-04-22T18:12:31.687Z,15.33
2023-04-22T18:14:58.335Z,15.53
2023-04-22T18:17:25.090Z,9.83
2023-04-22T18:19:54.431Z,11.83
2023-04-22T18:22:25.097Z,10.47
2023-04-22T18:24:51.883Z,11.27
2023-04-22T18:27:18.386Z,9.63
2023-04-22T18:29:44.966Z,11.50
2023-04-22T18:32:11.575Z,16.63
2023-04-22T18:34:38.260Z,23.47
2023-04-22T18:37:04.929Z,21.43
2023-04-22T18:39:31.421Z,27.73
2023-04-22T18:41:57.947Z,34.43
2023-04-22T18:44:24.628Z,46.10
2023-04-22T18:46:52.990Z,38.57
2023-04-22T18:49:19.806Z,36.67
2023-04-22T18:51:49.239Z,40.80
2023-04-22T18:54:16.080Z,31.50
2023-04-22T18:56:42.620Z,27.83
2023-04-22T18:59:09.214Z,23.47
2023-04-22T19:01:35.929Z,24.37
2023-04-22T19:04:02.726Z,24.43
2023-04-22T19:06:29.757Z,24.03
2023-04-22T19:08:56.877Z,23.17
2023-04-22T19:11:24.038Z,21.43
2023-04-22T19:13:53.477Z,24.23
2023-04-22T19:16:20.188Z,21.07
2023-04-22T19:18:46.820Z,21.80
2023-04-22T19:21:13.444Z,22.03
2023-04-22T19:23:40.752Z,18.50
2023-04-22T19:26:09.588Z,18.60
2023-04-22T19:28:36.681Z,16.00
2023-04-22T19:31:04.825Z,17.87
2023-04-22T19:33:31.729Z,21.90
2023-04-22T19:35:58.342Z,15.63
2023-04-22T19:38:24.967Z,13.60
2023-04-22T19:40:51.617Z,13.53
2023-04-22T19:43:19.278Z,14.03
2023-04-22T19:45:48.570Z,14.20
2023-04-22T19:48:15.456Z,15.00
2023-04-22T19:50:43.055Z,14.87
2023-04-22T19:53:10.594Z,16.03
2023-04-22T19:55:38.194Z,12.40
2023-04-22T19:58:05.364Z,14.00
2023-04-22T20:00:35.287Z,12.57
2023-04-22T20:03:02.253Z,11.83
2023-04-22T20:05:29.201Z,11.87
2023-04-22T20:07:58.806Z,11.43
2023-04-22T20:10:26.492Z,11.47
2023-04-22T20:12:53.254Z,11.43
2023-04-22T20:15:19.990Z,10.97
2023-04-22T20:17:46.733Z,11.07
2023-04-22T20:20:15.369Z,10.40
2023-04-22T20:22:42.579Z,10.83
2023-04-22T20:25:13.718Z,10.20
2023-04-22T20:27:40.955Z,10.63
2023-04-22T20:30:08.568Z,9.73
2023-04-22T20:32:36.504Z,9.73
2023-04-22T20:35:03.910Z,9.90
2023-04-22T20:37:33.940Z,9.73
2023-04-22T20:40:04.598Z,9.07
2023-04-22T20:42:33.161Z,9.47
2023-04-22T20:44:59.700Z,8.87
2023-04-22T20:47:26.484Z,11.50
2023-04-22T20:49:53.010Z,8.90
2023-04-22T20:52:19.540Z,9.07
2023-04-22T20:54:46.213Z,9.53
2023-04-22T20:57:13.042Z,9.13
2023-04-22T20:59:39.619Z,10.33
2023-04-22T21:02:07.017Z,9.50
2023-04-22T21:04:34.613Z,9.77
2023-04-22T21:07:04.034Z,9.37
2023-04-22T21:09:31.977Z,10.13
2023-04-22T21:11:58.686Z,9.77
2023-04-22T21:14:26.481Z,10.80
2023-04-22T21:16:56.240Z,10.33
2023-04-22T21:19:23.246Z,10.07
2023-04-22T21:21:51.009Z,12.07
2023-04-22T21:24:18.531Z,10.63
2023-04-22T21:26:47.262Z,10.63
2023-04-22T21:29:13.855Z,10.13
2023-04-22T21:31:40.602Z,11.40
2023-04-22T21:34:09.580Z,13.93
2023-04-22T21:36:36.142Z,10.83
2023-04-22T21:39:04.554Z,10.40
2023-04-22T21:41:31.360Z,11.15
2023-04-22T21:43:58.483Z,10.57
2023-04-22T21:46:25.192Z,9.97
2023-04-22T21:48:51.936Z,10.03
2023-04-22T21:51:18.473Z,10.73
2023-04-22T21:53:45.038Z,10.60
2023-04-22T21:56:11.846Z,10.57
2023-04-22T21:58:38.341Z,9.77
2023-04-22T22:01:04.889Z,11.43
2023-04-22T22:03:31.639Z,9.87
2023-04-22T22:05:58.317Z,10.63
2023-04-22T22:08:24.891Z,11.30
2023-04-22T22:10:51.553Z,12.33
2023-04-22T22:13:18.183Z,11.30
2023-04-22T22:15:44.864Z,10.93
2023-04-22T22:18:11.364Z,11.50
2023-04-22T22:20:37.898Z,10.87
2023-04-22T22:23:04.553Z,9.67
2023-04-22T22:25:31.086Z,10.77
2023-04-22T22:27:57.678Z,9.53
2023-04-22T22:30:24.240Z,10.10
2023-04-22T22:32:50.981Z,10.10
2023-04-22T22:35:17.646Z,10.17
2023-04-22T22:37:44.744Z,10.27
2023-04-22T22:40:11.788Z,10.27
2023-04-22T22:42:38.291Z,12.03
2023-04-22T22:45:07.855Z,10.27
2023-04-22T22:47:34.436Z,9.80
2023-04-22T22:50:01.046Z,9.83
2023-04-22T22:52:27.532Z,9.43
2023-04-22T22:54:54.071Z,10.53
2023-04-22T22:57:20.902Z,10.63
2023-04-22T22:59:47.498Z,14.10
2023-04-22T23:02:14.354Z,10.13
2023-04-22T23:04:41.314Z,10.73
2023-04-22T23:07:08.015Z,10.47
2023-04-22T23:09:34.642Z,9.40
2023-04-22T23:12:02.758Z,9.87
2023-04-22T23:14:30.009Z,10.53
2023-04-22T23:16:56.556Z,11.33
2023-04-22T23:19:23.336Z,10.40
2023-04-22T23:21:50.000Z,10.17
2023-04-22T23:24:16.861Z,10.33
2023-04-22T23:26:43.507Z,9.83
2023-04-22T23:29:10.230Z,10.10
2023-04-22T23:31:37.264Z,10.90
2023-04-22T23:34:05.049Z,15.20
2023-04-22T23:36:36.498Z,9.90
2023-04-22T23:39:03.571Z,11.13
2023-04-22T23:41:30.043Z,9.83
2023-04-22T23:43:56.632Z,11.40
2023-04-22T23:46:23.161Z,9.77
2023-04-22T23:48:49.790Z,13.43
2023-04-22T23:51:16.820Z,11.47
2023-04-22T23:53:44.060Z,10.77
2023-04-22T23:56:10.976Z,11.80
2023-04-22T23:58:37.846Z,11.00
